sensor_id;sensor_type;location;lat;lon;timestamp;P1;durP1;ratioP1;P2;durP2;ratioP2
37309;SDS011;23195;47.744;7.358;2023-06-10T08:57:01;11.50;;;10.47;;
37309;SDS011;23195;47.744;7.358;2023-06-10T09:10:00;10.57;;;9.60;;
37309;SDS011;23195;47.744;7.358;2023-06-10T09:12:56;9.50;;;8.25;;
37309;SDS011;23195;47.744;7.358;2023-06-10T09:15:48;12.10;;;9.87;;
37309;SDS011;23195;47.744;7.358;2023-06-10T09:18:56;10.67;;;9.20;;
37309;SDS011;23195;47.744;7.358;2023-06-10T09:25:06;9.77;;;8.97;;
37309;SDS011;23195;47.744;7.358;2023-06-10T09:27:59;8.57;;;7.87;;
37309;SDS011;23195;47.744;7.358;2023-06-10T09:34:16;10.50;;;9.40;;
37309;SDS011;23195;47.744;7.358;2023-06-10T09:36:54;8.53;;;7.70;;
37309;SDS011;23195;47.744;7.358;2023-06-10T09:42:56;8.10;;;7.40;;
37309;SDS011;23195;47.744;7.358;2023-06-10T09:45:37;12.50;;;9.07;;
37309;SDS011;23195;47.744;7.358;2023-06-10T09:51:18;10.60;;;8.70;;
37309;SDS011;23195;47.744;7.358;2023-06-10T09:53:51;10.00;;;7.73;;
37309;SDS011;23195;47.744;7.358;2023-06-10T09:56:32;9.50;;;8.23;;
37309;SDS011;23195;47.744;7.358;2023-06-10T09:58:59;9.90;;;8.70;;
37309;SDS011;23195;47.744;7.358;2023-06-10T10:01:31;11.37;;;8.40;;
37309;SDS011;23195;47.744;7.358;2023-06-10T10:04:23;10.30;;;8.57;;
37309;SDS011;23195;47.744;7.358;2023-06-10T10:07:02;9.37;;;7.90;;
37309;SDS011;23195;47.744;7.358;2023-06-10T10:09:54;8.87;;;8.07;;
37309;SDS011;23195;47.744;7.358;2023-06-10T10:12:54;8.30;;;7.50;;
37309;SDS011;23195;47.744;7.358;2023-06-10T10:15:34;7.90;;;6.97;;
37309;SDS011;23195;47.744;7.358;2023-06-10T10:18:32;9.50;;;7.77;;
37309;SDS011;23195;47.744;7.358;2023-06-10T10:21:04;8.20;;;7.47;;
37309;SDS011;23195;47.744;7.358;2023-06-10T10:24:16;8.50;;;7.70;;
37309;SDS011;23195;47.744;7.358;2023-06-10T10:26:56;8.17;;;7.37;;
37309;SDS011;23195;47.744;7.358;2023-06-10T10:29:39;9.03;;;8.10;;
37309;SDS011;23195;47.744;7.358;2023-06-10T10:38:21;8.97;;;8.07;;
37309;SDS011;23195;47.744;7.358;2023-06-10T10:41:26;9.17;;;7.60;;
37309;SDS011;23195;47.744;7.358;2023-06-10T10:44:19;9.57;;;8.00;;
37309;SDS011;23195;47.744;7.358;2023-06-10T10:47:25;8.93;;;8.00;;
37309;SDS011;23195;47.744;7.358;2023-06-10T11:05:30;9.00;;;8.10;;
37309;SDS011;23195;47.744;7.358;2023-06-10T11:12:18;9.43;;;8.40;;
37309;SDS011;23195;47.744;7.358;2023-06-10T11:15:19;10.30;;;8.17;;
37309;SDS011;23195;47.744;7.358;2023-06-10T11:35:37;10.40;;;9.30;;
37309;SDS011;23195;47.744;7.358;2023-06-10T11:39:10;10.27;;;8.83;;
37309;SDS011;23195;47.744;7.358;2023-06-10T11:45:59;9.90;;;8.90;;
37309;SDS011;23195;47.744;7.358;2023-06-10T11:49:11;10.63;;;9.40;;
37309;SDS011;23195;47.744;7.358;2023-06-10T12:04:55;9.40;;;8.57;;
37309;SDS011;23195;47.744;7.358;2023-06-10T12:07:45;9.63;;;8.57;;
37309;SDS011;23195;47.744;7.358;2023-06-10T12:10:51;9.90;;;8.90;;
37309;SDS011;23195;47.744;7.358;2023-06-10T12:13:33;9.53;;;8.53;;
37309;SDS011;23195;47.744;7.358;2023-06-10T12:16:12;9.57;;;8.53;;
37309;SDS011;23195;47.744;7.358;2023-06-10T12:21:41;8.67;;;7.87;;
37309;SDS011;23195;47.744;7.358;2023-06-10T12:24:31;11.53;;;8.60;;
37309;SDS011;23195;47.744;7.358;2023-06-10T12:27:24;9.70;;;8.90;;
37309;SDS011;23195;47.744;7.358;2023-06-10T12:30:03;9.73;;;8.90;;
37309;SDS011;23195;47.744;7.358;2023-06-10T12:35:28;10.67;;;9.77;;
37309;SDS011;23195;47.744;7.358;2023-06-10T12:38:02;10.83;;;9.80;;
37309;SDS011;23195;47.744;7.358;2023-06-10T12:40:39;11.40;;;10.30;;
37309;SDS011;23195;47.744;7.358;2023-06-10T12:43:16;10.33;;;9.33;;
37309;SDS011;23195;47.744;7.358;2023-06-10T12:46:08;10.13;;;9.13;;
37309;SDS011;23195;47.744;7.358;2023-06-10T12:52:15;10.40;;;8.93;;
37309;SDS011;23195;47.744;7.358;2023-06-10T12:55:15;9.97;;;9.17;;
37309;SDS011;23195;47.744;7.358;2023-06-10T12:57:54;10.33;;;9.33;;
37309;SDS011;23195;47.744;7.358;2023-06-10T13:00:36;9.83;;;9.03;;
37309;SDS011;23195;47.744;7.358;2023-06-10T13:03:36;9.93;;;9.03;;
37309;SDS011;23195;47.744;7.358;2023-06-10T13:09:34;10.37;;;9.37;;
37309;SDS011;23195;47.744;7.358;2023-06-10T13:12:13;11.73;;;9.70;;
37309;SDS011;23195;47.744;7.358;2023-06-10T13:17:59;10.47;;;9.30;;
37309;SDS011;23195;47.744;7.358;2023-06-10T13:20:36;10.20;;;9.17;;
37309;SDS011;23195;47.744;7.358;2023-06-10T13:23:14;11.30;;;8.80;;
37309;SDS011;23195;47.744;7.358;2023-06-10T13:25:59;9.63;;;8.70;;
37309;SDS011;23195;47.744;7.358;2023-06-10T13:28:40;9.63;;;8.83;;
37309;SDS011;23195;47.744;7.358;2023-06-10T13:31:06;10.30;;;9.30;;
37309;SDS011;23195;47.744;7.358;2023-06-10T13:33:36;9.63;;;8.80;;
37309;SDS011;23195;47.744;7.358;2023-06-10T13:36:13;9.90;;;9.00;;
37309;SDS011;23195;47.744;7.358;2023-06-10T13:38:39;10.37;;;8.30;;
37309;SDS011;23195;47.744;7.358;2023-06-10T13:44:21;9.17;;;8.30;;
37309;SDS011;23195;47.744;7.358;2023-06-10T13:47:08;9.67;;;8.77;;
37309;SDS011;23195;47.744;7.358;2023-06-10T13:49:53;9.40;;;8.60;;
37309;SDS011;23195;47.744;7.358;2023-06-10T13:52:26;9.20;;;8.40;;
37309;SDS011;23195;47.744;7.358;2023-06-10T13:55:05;9.23;;;8.43;;
37309;SDS011;23195;47.744;7.358;2023-06-10T13:58:05;9.33;;;8.43;;
37309;SDS011;23195;47.744;7.358;2023-06-10T14:00:45;9.47;;;8.67;;
37309;SDS011;23195;47.744;7.358;2023-06-10T14:03:15;9.90;;;9.10;;
37309;SDS011;23195;47.744;7.358;2023-06-10T14:06:07;11.57;;;8.57;;
37309;SDS011;23195;47.744;7.358;2023-06-10T14:08:55;10.37;;;9.47;;
37309;SDS011;23195;47.744;7.358;2023-06-10T14:11:44;9.83;;;8.87;;
37309;SDS011;23195;47.744;7.358;2023-06-10T14:14:23;9.97;;;8.87;;
37309;SDS011;23195;47.744;7.358;2023-06-10T14:16:55;9.57;;;8.60;;
37309;SDS011;23195;47.744;7.358;2023-06-10T14:19:31;9.47;;;8.57;;
37309;SDS011;23195;47.744;7.358;2023-06-10T14:22:22;9.87;;;8.67;;
37309;SDS011;23195;47.744;7.358;2023-06-10T14:24:50;9.97;;;8.30;;
37309;SDS011;23195;47.744;7.358;2023-06-10T14:27:16;13.10;;;9.17;;
37309;SDS011;23195;47.744;7.358;2023-06-10T14:29:57;10.73;;;8.83;;
37309;SDS011;23195;47.744;7.358;2023-06-10T14:32:26;10.47;;;8.43;;
37309;SDS011;23195;47.744;7.358;2023-06-10T14:34:54;9.03;;;8.23;;
37309;SDS011;23195;47.744;7.358;2023-06-10T14:37:32;10.33;;;9.20;;
37309;SDS011;23195;47.744;7.358;2023-06-10T14:40:09;9.33;;;8.57;;
37309;SDS011;23195;47.744;7.358;2023-06-10T14:42:57;9.63;;;8.77;;
37309;SDS011;23195;47.744;7.358;2023-06-10T14:45:37;9.20;;;8.20;;
37309;SDS011;23195;47.744;7.358;2023-06-10T14:48:06;11.13;;;8.40;;
37309;SDS011;23195;47.744;7.358;2023-06-10T14:54:15;9.03;;;7.77;;
37309;SDS011;23195;47.744;7.358;2023-06-10T14:56:53;8.30;;;7.60;;
37309;SDS011;23195;47.744;7.358;2023-06-10T14:59:44;9.00;;;8.10;;
37309;SDS011;23195;47.744;7.358;2023-06-10T15:02:13;8.00;;;7.30;;
37309;SDS011;23195;47.744;7.358;2023-06-10T15:04:41;8.67;;;7.70;;
37309;SDS011;23195;47.744;7.358;2023-06-10T15:07:16;8.43;;;7.50;;
37309;SDS011;23195;47.744;7.358;2023-06-10T15:10:00;8.33;;;7.20;;
37309;SDS011;23195;47.744;7.358;2023-06-10T15:12:59;8.13;;;7.43;;
37309;SDS011;23195;47.744;7.358;2023-06-10T15:15:35;8.00;;;7.20;;
37309;SDS011;23195;47.744;7.358;2023-06-10T15:18:58;8.37;;;7.60;;
37309;SDS011;23195;47.744;7.358;2023-06-10T15:21:37;7.87;;;7.17;;
37309;SDS011;23195;47.744;7.358;2023-06-10T15:24:25;8.00;;;7.30;;
37309;SDS011;23195;47.744;7.358;2023-06-10T15:27:17;8.43;;;7.63;;
37309;SDS011;23195;47.744;7.358;2023-06-10T15:29:48;9.33;;;7.50;;
37309;SDS011;23195;47.744;7.358;2023-06-10T15:32:20;7.77;;;7.17;;
37309;SDS011;23195;47.744;7.358;2023-06-10T15:35:04;7.93;;;7.33;;
37309;SDS011;23195;47.744;7.358;2023-06-10T15:37:39;8.27;;;7.50;;
37309;SDS011;23195;47.744;7.358;2023-06-10T15:40:26;8.50;;;7.70;;
37309;SDS011;23195;47.744;7.358;2023-06-10T15:43:35;9.53;;;7.97;;
37309;SDS011;23195;47.744;7.358;2023-06-10T15:53:04;7.93;;;7.13;;
37309;SDS011;23195;47.744;7.358;2023-06-10T15:55:41;8.17;;;7.23;;
37309;SDS011;23195;47.744;7.358;2023-06-10T15:58:19;7.87;;;6.87;;
37309;SDS011;23195;47.744;7.358;2023-06-10T16:00:45;7.33;;;6.73;;
37309;SDS011;23195;47.744;7.358;2023-06-10T16:03:25;7.10;;;6.40;;
37309;SDS011;23195;47.744;7.358;2023-06-10T16:05:54;7.40;;;6.70;;
37309;SDS011;23195;47.744;7.358;2023-06-10T16:08:21;6.90;;;6.37;;
37309;SDS011;23195;47.744;7.358;2023-06-10T16:10:56;7.00;;;6.37;;
37309;SDS011;23195;47.744;7.358;2023-06-10T16:13:37;6.97;;;6.37;;
37309;SDS011;23195;47.744;7.358;2023-06-10T16:19:26;8.90;;;6.47;;
37309;SDS011;23195;47.744;7.358;2023-06-10T16:22:12;8.93;;;6.27;;
37309;SDS011;23195;47.744;7.358;2023-06-10T16:24:40;6.87;;;6.20;;
37309;SDS011;23195;47.744;7.358;2023-06-10T16:27:26;6.83;;;6.23;;
37309;SDS011;23195;47.744;7.358;2023-06-10T16:29:57;6.40;;;5.80;;
37309;SDS011;23195;47.744;7.358;2023-06-10T16:32:29;7.43;;;5.73;;
37309;SDS011;23195;47.744;7.358;2023-06-10T16:35:07;5.30;;;4.87;;
37309;SDS011;23195;47.744;7.358;2023-06-10T16:37:59;6.03;;;5.43;;
37309;SDS011;23195;47.744;7.358;2023-06-10T16:40:43;6.07;;;5.47;;
37309;SDS011;23195;47.744;7.358;2023-06-10T16:43:20;7.90;;;5.53;;
37309;SDS011;23195;47.744;7.358;2023-06-10T16:45:57;6.20;;;5.60;;
37309;SDS011;23195;47.744;7.358;2023-06-10T16:51:49;6.07;;;5.27;;
37309;SDS011;23195;47.744;7.358;2023-06-10T16:54:17;6.17;;;4.87;;
37309;SDS011;23195;47.744;7.358;2023-06-10T16:56:58;6.13;;;5.50;;
37309;SDS011;23195;47.744;7.358;2023-06-10T16:59:47;6.47;;;5.17;;
37309;SDS011;23195;47.744;7.358;2023-06-10T17:02:13;6.23;;;5.63;;
37309;SDS011;23195;47.744;7.358;2023-06-10T17:04:54;5.63;;;5.07;;
37309;SDS011;23195;47.744;7.358;2023-06-10T17:07:38;5.93;;;4.70;;
37309;SDS011;23195;47.744;7.358;2023-06-10T17:10:29;6.03;;;5.50;;
37309;SDS011;23195;47.744;7.358;2023-06-10T17:16:31;9.43;;;5.30;;
37309;SDS011;23195;47.744;7.358;2023-06-10T17:22:46;5.20;;;4.80;;
37309;SDS011;23195;47.744;7.358;2023-06-10T17:25:27;5.17;;;4.77;;
37309;SDS011;23195;47.744;7.358;2023-06-10T17:28:05;5.90;;;5.07;;
37309;SDS011;23195;47.744;7.358;2023-06-10T17:33:17;5.13;;;4.73;;
37309;SDS011;23195;47.744;7.358;2023-06-10T17:35:53;5.33;;;4.83;;
37309;SDS011;23195;47.744;7.358;2023-06-10T17:38:26;5.67;;;4.70;;
37309;SDS011;23195;47.744;7.358;2023-06-10T17:41:01;4.57;;;4.17;;
37309;SDS011;23195;47.744;7.358;2023-06-10T17:43:30;7.13;;;5.13;;
37309;SDS011;23195;47.744;7.358;2023-06-10T17:45:58;5.87;;;5.37;;
37309;SDS011;23195;47.744;7.358;2023-06-10T17:49:01;7.10;;;5.60;;
37309;SDS011;23195;47.744;7.358;2023-06-10T17:51:43;5.30;;;4.80;;
37309;SDS011;23195;47.744;7.358;2023-06-10T17:54:29;8.73;;;4.90;;
37309;SDS011;23195;47.744;7.358;2023-06-10T17:59:55;5.40;;;4.90;;
37309;SDS011;23195;47.744;7.358;2023-06-10T18:02:26;5.33;;;4.83;;
37309;SDS011;23195;47.744;7.358;2023-06-10T18:08:31;7.43;;;5.13;;
37309;SDS011;23195;47.744;7.358;2023-06-10T18:11:02;5.17;;;4.67;;
37309;SDS011;23195;47.744;7.358;2023-06-10T18:13:39;6.30;;;4.50;;
37309;SDS011;23195;47.744;7.358;2023-06-10T18:16:21;5.60;;;5.00;;
37309;SDS011;23195;47.744;7.358;2023-06-10T18:18:49;7.83;;;4.70;;
37309;SDS011;23195;47.744;7.358;2023-06-10T18:21:23;5.13;;;4.63;;
37309;SDS011;23195;47.744;7.358;2023-06-10T18:23:57;4.93;;;4.47;;
37309;SDS011;23195;47.744;7.358;2023-06-10T18:26:33;6.10;;;5.30;;
37309;SDS011;23195;47.744;7.358;2023-06-10T18:29:05;6.13;;;4.40;;
37309;SDS011;23195;47.744;7.358;2023-06-10T18:31:50;4.93;;;4.43;;
37309;SDS011;23195;47.744;7.358;2023-06-10T18:34:32;5.93;;;5.23;;
37309;SDS011;23195;47.744;7.358;2023-06-10T18:37:10;5.30;;;4.90;;
37309;SDS011;23195;47.744;7.358;2023-06-10T18:39:56;5.77;;;5.27;;
37309;SDS011;23195;47.744;7.358;2023-06-10T18:42:24;12.73;;;10.03;;
37309;SDS011;23195;47.744;7.358;2023-06-10T18:44:58;7.13;;;5.30;;
37309;SDS011;23195;47.744;7.358;2023-06-10T18:47:54;6.43;;;5.77;;
37309;SDS011;23195;47.744;7.358;2023-06-10T18:50:37;6.03;;;5.43;;
37309;SDS011;23195;47.744;7.358;2023-06-10T18:53:34;5.80;;;4.93;;
37309;SDS011;23195;47.744;7.358;2023-06-10T18:56:02;8.07;;;5.20;;
37309;SDS011;23195;47.744;7.358;2023-06-10T18:58:40;5.80;;;5.30;;
37309;SDS011;23195;47.744;7.358;2023-06-10T19:04:16;5.20;;;4.80;;
37309;SDS011;23195;47.744;7.358;2023-06-10T19:06:45;5.90;;;5.30;;
37309;SDS011;23195;47.744;7.358;2023-06-10T19:09:18;5.83;;;5.23;;
37309;SDS011;23195;47.744;7.358;2023-06-10T19:12:17;6.67;;;5.90;;
37309;SDS011;23195;47.744;7.358;2023-06-10T19:15:12;6.03;;;5.40;;
37309;SDS011;23195;47.744;7.358;2023-06-10T19:18:01;7.50;;;5.37;;
37309;SDS011;23195;47.744;7.358;2023-06-10T19:20:27;7.80;;;6.00;;
37309;SDS011;23195;47.744;7.358;2023-06-10T19:23:00;7.37;;;5.70;;
37309;SDS011;23195;47.744;7.358;2023-06-10T19:25:40;8.00;;;5.63;;
37309;SDS011;23195;47.744;7.358;2023-06-10T19:28:31;7.53;;;5.73;;
37309;SDS011;23195;47.744;7.358;2023-06-10T19:30:59;6.50;;;5.60;;
37309;SDS011;23195;47.744;7.358;2023-06-10T19:36:39;9.60;;;6.23;;
37309;SDS011;23195;47.744;7.358;2023-06-10T19:39:10;11.03;;;6.27;;
37309;SDS011;23195;47.744;7.358;2023-06-10T19:41:36;5.97;;;5.47;;
37309;SDS011;23195;47.744;7.358;2023-06-10T19:44:07;11.50;;;6.63;;
37309;SDS011;23195;47.744;7.358;2023-06-10T19:46:37;8.93;;;6.53;;
37309;SDS011;23195;47.744;7.358;2023-06-10T19:49:24;8.23;;;7.30;;
37309;SDS011;23195;47.744;7.358;2023-06-10T19:51:50;7.30;;;6.70;;
37309;SDS011;23195;47.744;7.358;2023-06-10T20:04:39;16.53;;;8.10;;
37309;SDS011;23195;47.744;7.358;2023-06-10T20:17:17;10.53;;;7.13;;
37309;SDS011;23195;47.744;7.358;2023-06-10T20:31:36;7.53;;;5.90;;
37309;SDS011;23195;47.744;7.358;2023-06-10T20:37:16;8.57;;;6.17;;
37309;SDS011;23195;47.744;7.358;2023-06-10T20:39:45;6.60;;;5.90;;
37309;SDS011;23195;47.744;7.358;2023-06-10T20:42:30;7.50;;;5.50;;
37309;SDS011;23195;47.744;7.358;2023-06-10T20:48:22;7.90;;;4.40;;
37309;SDS011;23195;47.744;7.358;2023-06-10T20:51:01;5.20;;;4.33;;
37309;SDS011;23195;47.744;7.358;2023-06-10T20:53:27;5.47;;;4.37;;
37309;SDS011;23195;47.744;7.358;2023-06-10T20:56:25;5.70;;;4.67;;
37309;SDS011;23195;47.744;7.358;2023-06-10T20:58:54;5.00;;;4.50;;
37309;SDS011;23195;47.744;7.358;2023-06-10T21:01:52;5.13;;;4.70;;
37309;SDS011;23195;47.744;7.358;2023-06-10T21:07:16;6.53;;;4.73;;
37309;SDS011;23195;47.744;7.358;2023-06-10T21:09:47;4.93;;;4.50;;
37309;SDS011;23195;47.744;7.358;2023-06-10T21:12:35;6.00;;;4.93;;
37309;SDS011;23195;47.744;7.358;2023-06-10T21:18:25;5.47;;;4.80;;
37309;SDS011;23195;47.744;7.358;2023-06-10T21:20:50;8.77;;;4.60;;
37309;SDS011;23195;47.744;7.358;2023-06-10T21:23:16;5.20;;;4.80;;
37309;SDS011;23195;47.744;7.358;2023-06-10T21:28:36;5.80;;;4.90;;
37309;SDS011;23195;47.744;7.358;2023-06-10T21:31:01;5.80;;;5.17;;
37309;SDS011;23195;47.744;7.358;2023-06-10T21:33:32;6.30;;;5.67;;
37309;SDS011;23195;47.744;7.358;2023-06-10T21:36:01;9.13;;;5.97;;
37309;SDS011;23195;47.744;7.358;2023-06-10T21:38:34;7.63;;;6.13;;
37309;SDS011;23195;47.744;7.358;2023-06-10T21:41:06;9.03;;;6.23;;
37309;SDS011;23195;47.744;7.358;2023-06-10T21:43:50;6.40;;;5.77;;
37309;SDS011;23195;47.744;7.358;2023-06-10T21:46:19;6.63;;;5.93;;
37309;SDS011;23195;47.744;7.358;2023-06-10T21:48:45;6.60;;;5.67;;
37309;SDS011;23195;47.744;7.358;2023-06-10T21:51:20;6.43;;;5.40;;
37309;SDS011;23195;47.744;7.358;2023-06-10T21:53:56;6.07;;;5.40;;
37309;SDS011;23195;47.744;7.358;2023-06-10T21:56:25;6.67;;;5.97;;
37309;SDS011;23195;47.744;7.358;2023-06-10T21:59:01;7.97;;;5.43;;
37309;SDS011;23195;47.744;7.358;2023-06-10T22:01:29;6.23;;;4.93;;
37309;SDS011;23195;47.744;7.358;2023-06-10T22:04:10;6.93;;;5.30;;
37309;SDS011;23195;47.744;7.358;2023-06-10T22:06:40;5.23;;;4.77;;
37309;SDS011;23195;47.744;7.358;2023-06-10T22:09:17;5.47;;;4.90;;
37309;SDS011;23195;47.744;7.358;2023-06-10T22:11:43;5.47;;;4.97;;
37309;SDS011;23195;47.744;7.358;2023-06-10T22:14:10;6.43;;;5.80;;
37309;SDS011;23195;47.744;7.358;2023-06-10T22:16:36;6.63;;;4.70;;
37309;SDS011;23195;47.744;7.358;2023-06-10T22:19:04;6.13;;;4.90;;
37309;SDS011;23195;47.744;7.358;2023-06-10T22:21:35;5.33;;;4.57;;
37309;SDS011;23195;47.744;7.358;2023-06-10T22:24:03;6.33;;;4.93;;
37309;SDS011;23195;47.744;7.358;2023-06-10T22:26:29;5.60;;;4.70;;
37309;SDS011;23195;47.744;7.358;2023-06-10T22:28:55;5.10;;;4.70;;
37309;SDS011;23195;47.744;7.358;2023-06-10T22:31:21;5.97;;;4.80;;
37309;SDS011;23195;47.744;7.358;2023-06-10T22:33:47;5.60;;;5.10;;
37309;SDS011;23195;47.744;7.358;2023-06-10T22:36:12;5.63;;;4.90;;
37309;SDS011;23195;47.744;7.358;2023-06-10T22:38:38;5.00;;;4.50;;
37309;SDS011;23195;47.744;7.358;2023-06-10T22:41:04;4.80;;;4.40;;
37309;SDS011;23195;47.744;7.358;2023-06-10T22:43:30;5.30;;;4.80;;
37309;SDS011;23195;47.744;7.358;2023-06-10T22:45:55;5.10;;;4.60;;
37309;SDS011;23195;47.744;7.358;2023-06-10T22:48:21;6.77;;;5.00;;
37309;SDS011;23195;47.744;7.358;2023-06-10T22:50:47;5.60;;;5.00;;
37309;SDS011;23195;47.744;7.358;2023-06-10T22:53:13;5.70;;;5.20;;
37309;SDS011;23195;47.744;7.358;2023-06-10T22:55:38;6.10;;;5.03;;
37309;SDS011;23195;47.744;7.358;2023-06-10T22:58:04;5.53;;;5.03;;
37309;SDS011;23195;47.744;7.358;2023-06-10T23:00:30;5.40;;;4.90;;
37309;SDS011;23195;47.744;7.358;2023-06-10T23:02:56;5.70;;;5.20;;
37309;SDS011;23195;47.744;7.358;2023-06-10T23:05:21;6.33;;;5.40;;
37309;SDS011;23195;47.744;7.358;2023-06-10T23:07:47;7.60;;;5.17;;
37309;SDS011;23195;47.744;7.358;2023-06-10T23:10:13;6.00;;;5.40;;
37309;SDS011;23195;47.744;7.358;2023-06-10T23:12:39;6.83;;;5.60;;
37309;SDS011;23195;47.744;7.358;2023-06-10T23:15:05;7.07;;;5.70;;
37309;SDS011;23195;47.744;7.358;2023-06-10T23:17:31;6.87;;;5.33;;
37309;SDS011;23195;47.744;7.358;2023-06-10T23:19:57;8.60;;;5.53;;
37309;SDS011;23195;47.744;7.358;2023-06-10T23:22:23;5.77;;;5.27;;
37309;SDS011;23195;47.744;7.358;2023-06-10T23:24:49;9.30;;;6.03;;
37309;SDS011;23195;47.744;7.358;2023-06-10T23:27:15;9.33;;;6.17;;
37309;SDS011;23195;47.744;7.358;2023-06-10T23:29:45;7.07;;;6.37;;
37309;SDS011;23195;47.744;7.358;2023-06-10T23:32:11;6.37;;;5.77;;
37309;SDS011;23195;47.744;7.358;2023-06-10T23:34:37;8.00;;;5.70;;
37309;SDS011;23195;47.744;7.358;2023-06-10T23:37:03;6.90;;;6.20;;
37309;SDS011;23195;47.744;7.358;2023-06-10T23:39:29;6.13;;;5.63;;
37309;SDS011;23195;47.744;7.358;2023-06-10T23:41:55;7.77;;;6.30;;
37309;SDS011;23195;47.744;7.358;2023-06-10T23:44:20;8.40;;;5.73;;
37309;SDS011;23195;47.744;7.358;2023-06-10T23:46:46;8.57;;;6.17;;
37309;SDS011;23195;47.744;7.358;2023-06-10T23:49:12;6.43;;;5.93;;
37309;SDS011;23195;47.744;7.358;2023-06-10T23:51:38;7.00;;;5.90;;
37309;SDS011;23195;47.744;7.358;2023-06-10T23:54:04;6.27;;;5.53;;
37309;SDS011;23195;47.744;7.358;2023-06-10T23:56:30;7.27;;;5.40;;
37309;SDS011;23195;47.744;7.358;2023-06-10T23:58:56;6.43;;;5.83;;
